createdAt,value
2017-01-14T00:00:40.229Z,-0.26
2017-01-14T00:01:40.688Z,-0.31
2017-01-14T00:02:40.530Z,-0.26
2017-01-14T00:03:40.494Z,-0.28
2017-01-14T00:04:40.463Z,-0.22
2017-01-14T00:05:40.402Z,-0.31
2017-01-14T00:06:39.971Z,-0.18
2017-01-14T00:07:40.316Z,-0.25
2017-01-14T00:08:40.273Z,-0.26
2017-01-14T00:09:40.042Z,-0.19
2017-01-14T00:10:39.853Z,-0.28
2017-01-14T00:11:40.153Z,-0.33
2017-01-14T00:12:39.829Z,-0.29
2017-01-14T00:13:40.056Z,-0.29
2017-01-14T00:14:40.031Z,-0.31
2017-01-14T00:15:39.976Z,-0.28
2017-01-14T00:16:40.009Z,-0.29
2017-01-14T00:17:39.888Z,-0.29
2017-01-14T00:18:39.841Z,-0.21
2017-01-14T00:19:39.797Z,-0.25
2017-01-14T00:20:39.373Z,-0.31
2017-01-14T00:21:39.721Z,-0.21
2017-01-14T00:22:39.789Z,-0.31
2017-01-14T00:23:39.241Z,-0.26
2017-01-14T00:24:39.694Z,-0.29
2017-01-14T00:25:39.545Z,-0.29
2017-01-14T00:26:39.496Z,-0.33
2017-01-14T00:27:39.072Z,-0.33
2017-01-14T00:28:39.031Z,-0.23
2017-01-14T00:29:39.402Z,-0.29
2017-01-14T00:30:39.328Z,-0.29
2017-01-14T00:31:39.275Z,-0.33
2017-01-14T00:32:39.245Z,-0.25
2017-01-14T00:33:38.811Z,-0.22
2017-01-14T00:34:38.765Z,-0.21
2017-01-14T00:35:39.111Z,-0.28
2017-01-14T00:36:39.287Z,-0.26
2017-01-14T00:37:38.641Z,-0.23
2017-01-14T00:38:38.983Z,-0.28
2017-01-14T00:39:38.555Z,-0.33
2017-01-14T00:40:38.902Z,-0.39
2017-01-14T00:41:38.475Z,-0.33
2017-01-14T00:42:38.811Z,-0.36
2017-01-14T00:43:38.386Z,-0.33
2017-01-14T00:44:38.756Z,-0.4
2017-01-14T00:45:38.297Z,-0.44
2017-01-14T00:46:38.255Z,-0.37
2017-01-14T00:47:37.824Z,-0.42
2017-01-14T00:48:38.807Z,-0.39
2017-01-14T00:49:38.510Z,-0.34
2017-01-14T00:50:38.473Z,-0.39
2017-01-14T00:51:38.423Z,-0.33
2017-01-14T00:52:38.379Z,-0.43
2017-01-14T00:53:37.955Z,-0.33
2017-01-14T00:54:38.297Z,-0.39
2017-01-14T00:55:38.252Z,-0.36
2017-01-14T00:56:37.512Z,-0.36
2017-01-14T00:57:37.779Z,-0.34
2017-01-14T00:58:37.739Z,-0.33
2017-01-14T00:59:37.696Z,-0.36
2017-01-14T01:00:37.683Z,-0.37
2017-01-14T01:01:37.993Z,-0.33
2017-01-14T01:02:37.238Z,-0.37
2017-01-14T01:03:37.912Z,-0.37
2017-01-14T01:04:37.863Z,-0.33
2017-01-14T01:05:37.443Z,-0.36
2017-01-14T01:06:37.779Z,-0.39
2017-01-14T01:07:37.355Z,-0.4
2017-01-14T01:08:37.827Z,-0.4
2017-01-14T01:09:36.883Z,-0.31
2017-01-14T01:10:37.356Z,-0.34
2017-01-14T01:11:37.569Z,-0.4
2017-01-14T01:12:37.579Z,-0.29
2017-01-14T01:13:37.801Z,-0.34
2017-01-14T01:14:37.473Z,-0.37
2017-01-14T01:15:36.652Z,-0.39
2017-01-14T01:16:37.355Z,-0.37
2017-01-14T01:17:37.312Z,-0.33
2017-01-14T01:18:37.270Z,-0.42
2017-01-14T01:19:36.845Z,-0.43
2017-01-14T01:20:36.915Z,-0.4
2017-01-14T01:21:37.243Z,-0.44
2017-01-14T01:22:37.484Z,-0.39
2017-01-14T01:23:36.666Z,-0.44
2017-01-14T01:24:36.625Z,-0.36
2017-01-14T01:25:36.581Z,-0.31
2017-01-14T01:26:36.156Z,-0.36
2017-01-14T01:27:36.497Z,-0.37
2017-01-14T01:28:36.954Z,-0.36
2017-01-14T01:29:36.417Z,-0.26
2017-01-14T01:30:36.366Z,-0.36
2017-01-14T01:31:36.706Z,-0.36
2017-01-14T01:32:36.491Z,-0.39
2017-01-14T01:33:36.239Z,-0.28
2017-01-14T01:34:36.777Z,-0.4
2017-01-14T01:35:36.538Z,-0.31
2017-01-14T01:36:36.951Z,-0.28
2017-01-14T01:37:36.067Z,-0.33
2017-01-14T01:38:36.441Z,-0.34
2017-01-14T01:39:35.980Z,-0.36
2017-01-14T01:40:36.431Z,-0.33
2017-01-14T01:41:36.285Z,-0.31
2017-01-14T01:42:35.463Z,-0.31
2017-01-14T01:43:35.812Z,-0.25
2017-01-14T01:44:36.155Z,-0.28
2017-01-14T01:45:36.116Z,-0.28
2017-01-14T01:46:36.066Z,-0.29
2017-01-14T01:47:35.642Z,-0.29
2017-01-14T01:48:35.980Z,-0.25
2017-01-14T01:49:35.938Z,-0.33
2017-01-14T01:50:35.894Z,-0.18
2017-01-14T01:51:35.472Z,-0.25
2017-01-14T01:52:35.832Z,-0.26
2017-01-14T01:53:35.554Z,-0.28
2017-01-14T01:54:35.839Z,-0.28
2017-01-14T01:55:35.295Z,-0.26
2017-01-14T01:56:35.740Z,-0.28
2017-01-14T01:57:35.645Z,-0.31
2017-01-14T01:58:35.551Z,-0.28
2017-01-14T01:59:35.586Z,-0.21
2017-01-14T02:00:35.468Z,-0.31
2017-01-14T02:01:35.037Z,-0.18
2017-01-14T02:02:35.000Z,-0.29
2017-01-14T02:03:34.955Z,-0.34
2017-01-14T02:04:34.906Z,-0.18
2017-01-14T02:05:35.327Z,-0.31
2017-01-14T02:06:34.841Z,-0.23
2017-01-14T02:07:35.042Z,-0.31
2017-01-14T02:08:34.739Z,-0.29
2017-01-14T02:09:35.091Z,-0.16
2017-01-14T02:10:34.655Z,-0.31
2017-01-14T02:11:34.994Z,-0.29
2017-01-14T02:12:34.951Z,-0.31
2017-01-14T02:13:34.920Z,-0.21
2017-01-14T02:14:34.104Z,-0.26
2017-01-14T02:15:34.537Z,-0.25
2017-01-14T02:16:34.396Z,-0.34
2017-01-14T02:17:34.356Z,-0.21
2017-01-14T02:18:34.703Z,-0.26
2017-01-14T02:19:34.328Z,-0.22
2017-01-14T02:20:34.637Z,-0.14
2017-01-14T02:21:34.616Z,-0.19
2017-01-14T02:22:34.527Z,-0.16
2017-01-14T02:23:34.478Z,-0.21
2017-01-14T02:24:34.444Z,-0.15
2017-01-14T02:25:34.095Z,-0.18
2017-01-14T02:26:34.061Z,-0.16
2017-01-14T02:27:34.314Z,-0.14
2017-01-14T02:28:34.320Z,-0.14
2017-01-14T02:29:34.232Z,-0.16
2017-01-14T02:30:34.236Z,-0.18
2017-01-14T02:31:33.758Z,-0.15
2017-01-14T02:32:34.100Z,-0.11
2017-01-14T02:33:34.092Z,-0.14
2017-01-14T02:34:34.060Z,-0.1
2017-01-14T02:35:34.081Z,-0.16
2017-01-14T02:36:33.539Z,-0.15
2017-01-14T02:37:33.505Z,-0.08
2017-01-14T02:38:33.459Z,-0.1
2017-01-14T02:39:33.412Z,-0.1
2017-01-14T02:40:33.756Z,-0.07
2017-01-14T02:41:33.788Z,-0.08
2017-01-14T02:42:33.680Z,-0.14
2017-01-14T02:43:33.770Z,-0.08
2017-01-14T02:44:33.884Z,-0.08
2017-01-14T02:45:33.160Z,-0.04
2017-01-14T02:46:33.111Z,-0.03
2017-01-14T02:47:33.074Z,-0.01
2017-01-14T02:48:32.645Z,-0.03
2017-01-14T02:49:32.994Z,-0.03
2017-01-14T02:50:32.948Z,-0.07
2017-01-14T02:51:33.713Z,0
2017-01-14T02:52:33.246Z,-0.08
2017-01-14T02:53:33.418Z,-0.01
2017-01-14T02:54:33.160Z,0
2017-01-14T02:55:33.116Z,0.04
2017-01-14T02:56:32.688Z,0.03
2017-01-14T02:57:32.649Z,0.08
2017-01-14T02:58:33.647Z,0.04
2017-01-14T02:59:32.946Z,0.07
2017-01-14T03:00:32.977Z,0.08
2017-01-14T03:01:32.858Z,0.08
2017-01-14T03:02:32.438Z,0.07
2017-01-14T03:03:32.774Z,0.1
2017-01-14T03:04:32.349Z,0.15
2017-01-14T03:05:32.695Z,0.03
2017-01-14T03:06:32.648Z,0.17
2017-01-14T03:07:32.225Z,0.15
2017-01-14T03:08:32.185Z,0.04
2017-01-14T03:09:32.526Z,0.18
2017-01-14T03:10:32.144Z,0.15
2017-01-14T03:11:32.049Z,0.11
2017-01-14T03:12:31.640Z,0.08
2017-01-14T03:13:32.416Z,0.13
2017-01-14T03:14:32.398Z,0.15
2017-01-14T03:15:32.265Z,0.18
2017-01-14T03:16:32.223Z,0.11
2017-01-14T03:17:31.809Z,0.2
2017-01-14T03:18:31.874Z,0.24
2017-01-14T03:19:31.725Z,0.28
2017-01-14T03:20:32.052Z,0.2
2017-01-14T03:21:32.009Z,0.29
2017-01-14T03:22:31.599Z,0.2
2017-01-14T03:23:31.926Z,0.14
2017-01-14T03:24:31.497Z,0.18
2017-01-14T03:25:31.455Z,0.23
2017-01-14T03:26:31.429Z,0.24
2017-01-14T03:27:31.753Z,0.26
2017-01-14T03:28:31.713Z,0.29
2017-01-14T03:29:31.719Z,0.23
2017-01-14T03:30:31.774Z,0.23
2017-01-14T03:31:31.207Z,0.29
2017-01-14T03:32:31.542Z,0.29
2017-01-14T03:33:31.498Z,0.26
2017-01-14T03:34:31.460Z,0.29
2017-01-14T03:35:31.416Z,0.32
2017-01-14T03:36:30.984Z,0.28
2017-01-14T03:37:30.944Z,0.26
2017-01-14T03:38:31.286Z,0.33
2017-01-14T03:39:30.860Z,0.28
2017-01-14T03:40:31.209Z,0.29
2017-01-14T03:41:30.782Z,0.33
2017-01-14T03:42:31.116Z,0.28
2017-01-14T03:43:31.072Z,0.35
2017-01-14T03:44:31.054Z,0.36
2017-01-14T03:45:30.991Z,0.44
2017-01-14T03:46:30.947Z,0.36
2017-01-14T03:47:30.910Z,0.44
2017-01-14T03:48:30.887Z,0.46
2017-01-14T03:49:30.819Z,0.39
2017-01-14T03:50:30.774Z,0.44
2017-01-14T03:51:30.729Z,0.42
2017-01-14T03:52:30.689Z,0.42
2017-01-14T03:53:29.885Z,0.46
2017-01-14T03:54:30.609Z,0.42
2017-01-14T03:55:30.176Z,0.42
2017-01-14T03:56:30.523Z,0.46
2017-01-14T03:57:30.096Z,0.47
2017-01-14T03:58:29.664Z,0.49
2017-01-14T03:59:30.396Z,0.51
2017-01-14T04:00:30.357Z,0.51
2017-01-14T04:01:30.328Z,0.5
2017-01-14T04:02:29.616Z,0.53
2017-01-14T04:03:30.222Z,0.44
2017-01-14T04:04:29.797Z,0.46
2017-01-14T04:05:30.341Z,0.53
2017-01-14T04:06:29.709Z,0.53
2017-01-14T04:07:44.571Z,0.58
2017-01-14T04:08:30.118Z,0.6
2017-01-14T04:09:29.974Z,0.55
2017-01-14T04:10:29.551Z,0.55
2017-01-14T04:11:29.503Z,0.58
2017-01-14T04:12:29.840Z,0.61
2017-01-14T04:13:29.795Z,0.66
2017-01-14T04:14:28.986Z,0.58
2017-01-14T04:15:29.332Z,0.62
2017-01-14T04:16:29.787Z,0.62
2017-01-14T04:17:29.244Z,0.66
2017-01-14T04:18:29.591Z,0.61
2017-01-14T04:19:29.596Z,0.61
2017-01-14T04:20:29.501Z,0.61
2017-01-14T04:21:29.074Z,0.65
2017-01-14T04:22:29.415Z,0.58
2017-01-14T04:23:29.505Z,0.66
2017-01-14T04:24:28.949Z,0.62
2017-01-14T04:25:29.292Z,0.65
2017-01-14T04:26:29.253Z,0.6
2017-01-14T04:27:29.354Z,0.69
2017-01-14T04:28:29.168Z,0.65
2017-01-14T04:29:29.122Z,0.68
2017-01-14T04:30:29.076Z,0.61
2017-01-14T04:31:29.150Z,0.68
2017-01-14T04:32:28.997Z,0.62
2017-01-14T04:33:28.572Z,0.65
2017-01-14T04:34:28.934Z,0.61
2017-01-14T04:35:28.869Z,0.68
2017-01-14T04:36:28.837Z,0.65
2017-01-14T04:37:29.242Z,0.69
2017-01-14T04:38:28.349Z,0.65
2017-01-14T04:39:28.694Z,0.65
2017-01-14T04:40:28.657Z,0.66
2017-01-14T04:41:28.612Z,0.65
2017-01-14T04:42:28.605Z,0.73
2017-01-14T04:43:28.143Z,0.65
2017-01-14T04:44:28.483Z,0.66
2017-01-14T04:45:28.054Z,0.7
2017-01-14T04:46:28.015Z,0.72
2017-01-14T04:47:28.358Z,0.69
2017-01-14T04:48:28.312Z,0.69
2017-01-14T04:49:28.265Z,0.72
2017-01-14T04:50:27.844Z,0.65
2017-01-14T04:51:27.815Z,0.68
2017-01-14T04:52:28.167Z,0.72
2017-01-14T04:53:28.098Z,0.68
2017-01-14T04:54:42.580Z,0.7
2017-01-14T04:55:28.066Z,0.73
2017-01-14T04:56:27.588Z,0.73
2017-01-14T04:57:27.939Z,0.78
2017-01-14T04:58:27.915Z,0.79
2017-01-14T04:59:27.851Z,0.75
2017-01-14T05:00:27.809Z,0.8
2017-01-14T05:01:27.761Z,0.78
2017-01-14T05:02:27.716Z,0.72
2017-01-14T05:03:27.289Z,0.73
2017-01-14T05:04:27.633Z,0.73
2017-01-14T05:05:27.211Z,0.79
2017-01-14T05:06:27.585Z,0.76
2017-01-14T05:07:27.124Z,0.84
2017-01-14T05:08:27.465Z,0.9
2017-01-14T05:09:27.424Z,0.79
2017-01-14T05:10:27.493Z,0.83
2017-01-14T05:11:27.339Z,0.87
2017-01-14T05:12:26.911Z,0.88
2017-01-14T05:13:27.252Z,0.8
2017-01-14T05:14:27.210Z,0.83
2017-01-14T05:15:27.168Z,0.87
2017-01-14T05:16:26.747Z,0.79
2017-01-14T05:17:27.229Z,0.87
2017-01-14T05:18:27.041Z,0.86
2017-01-14T05:19:27.394Z,0.88
2017-01-14T05:20:26.604Z,0.79
2017-01-14T05:21:26.912Z,0.84
2017-01-14T05:22:26.876Z,0.86
2017-01-14T05:23:26.994Z,0.86
2017-01-14T05:24:26.404Z,0.8
2017-01-14T05:25:26.360Z,0.8
2017-01-14T05:26:26.702Z,0.87
2017-01-14T05:27:26.271Z,0.84
2017-01-14T05:28:26.269Z,0.86
2017-01-14T05:29:26.190Z,0.84
2017-01-14T05:30:26.216Z,0.9
2017-01-14T05:31:26.489Z,0.8
2017-01-14T05:32:26.450Z,0.9
2017-01-14T05:33:26.413Z,0.84
2017-01-14T05:34:25.978Z,0.84
2017-01-14T05:35:26.312Z,0.87
2017-01-14T05:36:26.304Z,0.86
2017-01-14T05:37:25.851Z,0.86
2017-01-14T05:38:26.189Z,0.87
2017-01-14T05:39:25.867Z,0.86
2017-01-14T05:40:26.108Z,0.91
2017-01-14T05:41:25.989Z,0.91
2017-01-14T05:42:25.637Z,0.91
2017-01-14T05:43:25.603Z,0.91
2017-01-14T05:44:25.557Z,0.88
2017-01-14T05:45:25.514Z,0.88
2017-01-14T05:46:25.471Z,0.86
2017-01-14T05:47:25.426Z,0.86
2017-01-14T05:48:25.771Z,0.87
2017-01-14T05:49:25.344Z,0.84
2017-01-14T05:50:25.015Z,0.88
2017-01-14T05:51:25.643Z,0.87
2017-01-14T05:52:25.599Z,0.94
2017-01-14T05:53:25.559Z,0.94
2017-01-14T05:54:25.521Z,0.93
2017-01-14T05:55:25.479Z,0.91
2017-01-14T05:56:25.431Z,0.93
2017-01-14T05:57:25.390Z,0.84
2017-01-14T05:58:25.347Z,0.86
2017-01-14T05:59:25.309Z,0.87
2017-01-14T06:00:25.259Z,0.84
2017-01-14T06:01:25.443Z,0.93
2017-01-14T06:02:25.183Z,0.91
2017-01-14T06:03:24.747Z,0.91
2017-01-14T06:04:24.708Z,0.94
2017-01-14T06:05:25.093Z,0.9
2017-01-14T06:06:25.008Z,0.96
2017-01-14T06:07:24.963Z,0.93
2017-01-14T06:08:25.102Z,0.93
2017-01-14T06:09:24.880Z,0.9
2017-01-14T06:10:24.840Z,0.96
2017-01-14T06:11:24.797Z,0.9
2017-01-14T06:12:24.367Z,0.9
2017-01-14T06:13:24.711Z,0.98
2017-01-14T06:14:24.664Z,0.9
2017-01-14T06:15:24.659Z,0.9
2017-01-14T06:16:24.584Z,0.91
2017-01-14T06:17:24.542Z,0.88
2017-01-14T06:18:23.731Z,0.9
2017-01-14T06:19:24.072Z,0.94
2017-01-14T06:20:24.028Z,0.9
2017-01-14T06:21:23.984Z,0.96
2017-01-14T06:22:24.331Z,0.91
2017-01-14T06:23:23.904Z,0.96
2017-01-14T06:24:23.857Z,0.9
2017-01-14T06:25:24.205Z,0.91
2017-01-14T06:26:23.902Z,0.91
2017-01-14T06:27:23.734Z,0.9
2017-01-14T06:28:23.688Z,0.91
2017-01-14T06:29:23.260Z,0.91
2017-01-14T06:30:23.994Z,0.91
2017-01-14T06:31:23.635Z,0.87
2017-01-14T06:32:38.452Z,0.87
2017-01-14T06:33:23.863Z,0.88
2017-01-14T06:34:23.816Z,0.93
2017-01-14T06:35:23.394Z,0.94
2017-01-14T06:36:23.738Z,0.94
2017-01-14T06:37:23.690Z,0.9
2017-01-14T06:38:23.263Z,0.9
2017-01-14T06:39:23.704Z,0.94
2017-01-14T06:40:23.567Z,0.91
2017-01-14T06:41:23.524Z,0.84
2017-01-14T06:42:23.095Z,0.91
2017-01-14T06:43:23.050Z,0.94
2017-01-14T06:44:23.046Z,0.84
2017-01-14T06:45:22.967Z,0.86
2017-01-14T06:46:23.309Z,0.93
2017-01-14T06:47:23.273Z,0.84
2017-01-14T06:48:22.837Z,0.86
2017-01-14T06:49:22.799Z,0.9
2017-01-14T06:50:22.369Z,0.94
2017-01-14T06:51:23.099Z,0.94
2017-01-14T06:52:23.054Z,0.93
2017-01-14T06:53:22.623Z,0.94
2017-01-14T06:54:22.969Z,0.91
2017-01-14T06:55:22.932Z,0.87
2017-01-14T06:56:22.885Z,0.91
2017-01-14T06:57:22.844Z,0.9
2017-01-14T06:58:22.803Z,0.87
2017-01-14T06:59:22.778Z,0.93
2017-01-14T07:00:22.719Z,0.9
2017-01-14T07:01:22.676Z,0.96
2017-01-14T07:02:22.250Z,0.98
2017-01-14T07:03:22.791Z,0.9
2017-01-14T07:04:22.547Z,0.96
2017-01-14T07:05:22.604Z,0.91
2017-01-14T07:06:22.465Z,0.97
2017-01-14T07:07:22.422Z,0.88
2017-01-14T07:08:22.459Z,0.86
2017-01-14T07:09:21.947Z,0.86
2017-01-14T07:10:22.295Z,0.94
2017-01-14T07:11:22.254Z,0.98
2017-01-14T07:12:22.209Z,0.83
2017-01-14T07:13:22.169Z,0.83
2017-01-14T07:14:22.128Z,0.83
2017-01-14T07:15:21.697Z,0.86
2017-01-14T07:16:22.152Z,0.94
2017-01-14T07:17:21.610Z,0.83
2017-01-14T07:18:21.957Z,0.91
2017-01-14T07:19:21.624Z,0.87
2017-01-14T07:20:21.480Z,0.97
2017-01-14T07:21:21.943Z,0.94
2017-01-14T07:22:21.790Z,0.91
2017-01-14T07:23:21.740Z,0.88
2017-01-14T07:24:21.322Z,0.91
2017-01-14T07:25:21.696Z,0.93
2017-01-14T07:26:21.724Z,0.94
2017-01-14T07:27:20.803Z,0.96
2017-01-14T07:28:21.255Z,0.91
2017-01-14T07:29:21.107Z,0.91
2017-01-14T07:30:21.068Z,0.97
2017-01-14T07:31:21.019Z,0.98
2017-01-14T07:32:21.005Z,1.06
2017-01-14T07:33:21.313Z,1.04
2017-01-14T07:34:21.285Z,1
2017-01-14T07:35:21.237Z,1
2017-01-14T07:36:20.809Z,1.06
2017-01-14T07:37:20.773Z,1.05
2017-01-14T07:38:21.108Z,1.09
2017-01-14T07:39:21.068Z,1.09
2017-01-14T07:40:21.035Z,1.08
2017-01-14T07:41:20.680Z,1.15
2017-01-14T07:42:20.938Z,1.11
2017-01-14T07:43:20.514Z,1.2
2017-01-14T07:44:20.863Z,1.12
2017-01-14T07:45:20.432Z,1.16
2017-01-14T07:46:20.798Z,1.09
2017-01-14T07:47:20.730Z,1.18
2017-01-14T07:48:20.686Z,1.23
2017-01-14T07:49:20.641Z,1.22
2017-01-14T07:50:20.609Z,1.22
2017-01-14T07:51:20.562Z,1.24
2017-01-14T07:52:20.130Z,1.22
2017-01-14T07:53:20.087Z,1.26
2017-01-14T07:54:20.438Z,1.24
2017-01-14T07:55:20.003Z,1.23
2017-01-14T07:56:19.964Z,1.23
2017-01-14T07:57:20.307Z,1.23
2017-01-14T07:58:20.267Z,1.16
2017-01-14T07:59:20.229Z,1.22
2017-01-14T08:00:20.178Z,1.22
2017-01-14T08:01:20.240Z,1.22
2017-01-14T08:02:20.175Z,1.29
2017-01-14T08:03:19.667Z,1.24
2017-01-14T08:04:20.016Z,1.18
2017-01-14T08:05:19.973Z,1.16
2017-01-14T08:06:19.921Z,1.22
2017-01-14T08:07:19.499Z,1.2
2017-01-14T08:08:19.455Z,1.24
2017-01-14T08:09:19.803Z,1.3
2017-01-14T08:10:19.846Z,1.23
2017-01-14T08:11:19.713Z,1.4
2017-01-14T08:12:19.673Z,1.4
2017-01-14T08:13:19.636Z,1.3
2017-01-14T08:14:19.588Z,1.24
2017-01-14T08:15:19.550Z,1.23
2017-01-14T08:16:19.243Z,1.32
2017-01-14T08:17:19.468Z,1.27
2017-01-14T08:18:19.423Z,1.26
2017-01-14T08:19:19.373Z,1.33
2017-01-14T08:20:19.335Z,1.33
2017-01-14T08:21:19.297Z,1.3
2017-01-14T08:22:18.868Z,1.34
2017-01-14T08:23:19.211Z,1.33
2017-01-14T08:24:18.825Z,1.4
2017-01-14T08:25:19.132Z,1.34
2017-01-14T08:26:19.085Z,1.4
2017-01-14T08:27:19.048Z,1.34
2017-01-14T08:28:18.999Z,1.41
2017-01-14T08:29:18.571Z,1.36
2017-01-14T08:30:18.961Z,1.37
2017-01-14T08:31:18.490Z,1.45
2017-01-14T08:32:18.832Z,1.36
2017-01-14T08:33:18.787Z,1.41
2017-01-14T08:34:18.369Z,1.41
2017-01-14T08:35:18.426Z,1.45
2017-01-14T08:36:18.749Z,1.44
2017-01-14T08:37:18.629Z,1.4
2017-01-14T08:38:17.912Z,1.4
2017-01-14T08:39:17.767Z,1.45
2017-01-14T08:40:18.111Z,1.47
2017-01-14T08:41:18.455Z,1.58
2017-01-14T08:42:18.412Z,1.47
2017-01-14T08:43:18.367Z,1.55
2017-01-14T08:44:17.992Z,1.6
2017-01-14T08:45:18.336Z,1.58
2017-01-14T08:46:17.859Z,1.65
2017-01-14T08:47:18.202Z,1.62
2017-01-14T08:48:18.161Z,1.68
2017-01-14T08:49:17.743Z,1.79
2017-01-14T08:50:18.075Z,1.81
2017-01-14T08:51:17.704Z,1.81
2017-01-14T08:52:17.606Z,1.81
2017-01-14T08:53:17.575Z,1.83
2017-01-14T08:54:17.912Z,1.84
2017-01-14T08:55:17.866Z,1.8
2017-01-14T08:56:17.442Z,1.8
2017-01-14T08:57:17.398Z,1.81
2017-01-14T08:58:17.357Z,1.81
2017-01-14T08:59:17.702Z,1.7
2017-01-14T09:00:17.657Z,1.73
2017-01-14T09:01:17.236Z,1.79
2017-01-14T09:02:17.228Z,1.8
2017-01-14T09:03:17.636Z,1.77
2017-01-14T09:04:17.491Z,1.84
2017-01-14T09:05:17.060Z,1.91
2017-01-14T09:06:17.021Z,1.9
2017-01-14T09:07:17.004Z,1.91
2017-01-14T09:08:16.938Z,1.86
2017-01-14T09:09:16.509Z,1.91
2017-01-14T09:10:16.853Z,2.05
2017-01-14T09:11:17.198Z,2.02
2017-01-14T09:12:16.770Z,2.05
2017-01-14T09:13:16.725Z,2.05
2017-01-14T09:14:16.691Z,2.03
2017-01-14T09:15:16.646Z,2.14
2017-01-14T09:16:16.985Z,2.2
2017-01-14T09:17:16.946Z,2.2
2017-01-14T09:18:16.706Z,2.34
2017-01-14T09:19:16.950Z,2.28
2017-01-14T09:20:16.818Z,2.34
2017-01-14T09:21:16.406Z,2.39
2017-01-14T09:22:16.349Z,2.31
2017-01-14T09:23:16.310Z,2.35
2017-01-14T09:24:16.650Z,2.35
2017-01-14T09:25:16.228Z,2.39
2017-01-14T09:26:16.685Z,2.45
2017-01-14T09:27:15.756Z,2.45
2017-01-14T09:28:16.100Z,2.42
2017-01-14T09:29:16.444Z,2.41
2017-01-14T09:30:16.010Z,2.41
2017-01-14T09:31:15.982Z,2.42
2017-01-14T09:32:15.935Z,2.38
2017-01-14T09:33:16.279Z,2.36
2017-01-14T09:34:15.850Z,2.45
2017-01-14T09:35:16.194Z,2.38
2017-01-14T09:36:15.769Z,2.3
2017-01-14T09:37:16.114Z,2.43
2017-01-14T09:38:15.302Z,2.36
2017-01-14T09:39:16.031Z,2.36
2017-01-14T09:40:15.987Z,2.35
2017-01-14T09:41:15.169Z,2.24
2017-01-14T09:42:15.909Z,2.24
2017-01-14T09:43:15.482Z,2.24
2017-01-14T09:44:15.053Z,2.2
2017-01-14T09:45:15.778Z,2.18
2017-01-14T09:46:15.766Z,2.2
2017-01-14T09:47:15.311Z,2.14
2017-01-14T09:48:15.658Z,2.2
2017-01-14T09:49:15.611Z,2.2
2017-01-14T09:50:15.572Z,2.2
2017-01-14T09:51:15.150Z,2.16
2017-01-14T09:52:15.484Z,2.07
2017-01-14T09:53:15.070Z,2.14
2017-01-14T09:54:15.068Z,2.14
2017-01-14T09:55:15.426Z,2.1
2017-01-14T09:56:15.321Z,2.18
2017-01-14T09:57:14.897Z,2.2
2017-01-14T09:58:14.857Z,2.21
2017-01-14T09:59:14.818Z,2.34
2017-01-14T10:00:15.157Z,2.28
2017-01-14T10:01:14.732Z,2.28
2017-01-14T10:02:14.688Z,2.28
2017-01-14T10:03:14.648Z,2.38
2017-01-14T10:04:14.609Z,2.41
2017-01-14T10:05:15.023Z,2.43
2017-01-14T10:06:15.111Z,2.45
2017-01-14T10:07:14.865Z,2.45
2017-01-14T10:08:14.051Z,2.49
2017-01-14T10:09:14.016Z,2.42
2017-01-14T10:10:14.750Z,2.38
2017-01-14T10:11:14.739Z,2.35
2017-01-14T10:12:14.663Z,2.41
2017-01-14T10:13:14.620Z,2.38
2017-01-14T10:14:14.588Z,2.35
2017-01-14T10:15:14.535Z,2.31
2017-01-14T10:16:14.497Z,2.34
2017-01-14T10:17:14.067Z,2.27
2017-01-14T10:18:14.412Z,2.34
2017-01-14T10:19:13.988Z,2.28
2017-01-14T10:20:14.330Z,2.35
2017-01-14T10:21:13.905Z,2.27
2017-01-14T10:22:14.254Z,2.23
2017-01-14T10:23:14.212Z,2.28
2017-01-14T10:24:13.777Z,2.25
2017-01-14T10:25:13.738Z,2.21
2017-01-14T10:26:13.695Z,2.16
2017-01-14T10:27:13.655Z,2.21
2017-01-14T10:28:14.048Z,2.2
2017-01-14T10:29:13.956Z,2.23
2017-01-14T10:30:13.918Z,2.3
2017-01-14T10:31:13.890Z,2.34
2017-01-14T10:32:13.846Z,2.48
2017-01-14T10:33:13.799Z,2.54
2017-01-14T10:34:13.748Z,2.69
2017-01-14T10:35:13.716Z,2.66
2017-01-14T10:36:13.285Z,2.72
2017-01-14T10:37:13.289Z,2.84
2017-01-14T10:38:13.200Z,2.84
2017-01-14T10:39:13.546Z,2.81
2017-01-14T10:40:13.201Z,2.82
2017-01-14T10:41:13.465Z,3
2017-01-14T10:42:13.039Z,2.85
2017-01-14T10:43:13.377Z,2.87
2017-01-14T10:44:12.955Z,2.93
2017-01-14T10:45:13.323Z,2.96
2017-01-14T10:46:12.483Z,3.05
2017-01-14T10:47:12.831Z,2.99
2017-01-14T10:48:12.785Z,3.03
2017-01-14T10:49:12.763Z,3.06
2017-01-14T10:50:13.093Z,3.08
2017-01-14T10:51:13.056Z,3.18
2017-01-14T10:52:12.623Z,3.21
2017-01-14T10:53:12.966Z,3.2
2017-01-14T10:54:12.936Z,3.13
2017-01-14T10:55:12.896Z,3.14
2017-01-14T10:56:12.843Z,3.14
2017-01-14T10:57:12.808Z,3.14
2017-01-14T10:58:12.763Z,3.13
2017-01-14T10:59:12.339Z,3.11
2017-01-14T11:00:12.304Z,3.02
2017-01-14T11:01:12.256Z,3.08
2017-01-14T11:02:12.682Z,2.96
2017-01-14T11:03:11.791Z,3.1
2017-01-14T11:04:12.526Z,3.11
2017-01-14T11:05:12.477Z,3.06
2017-01-14T11:06:12.049Z,3.03
2017-01-14T11:07:12.399Z,3.05
2017-01-14T11:08:11.969Z,3.1
2017-01-14T11:09:11.548Z,3.11
2017-01-14T11:10:11.889Z,3.02
2017-01-14T11:11:12.239Z,3.13
2017-01-14T11:12:12.192Z,3.13
2017-01-14T11:13:12.149Z,3.14
2017-01-14T11:14:12.132Z,3.1
2017-01-14T11:15:12.066Z,3.15
2017-01-14T11:16:11.640Z,3.1
2017-01-14T11:17:11.993Z,3.05
2017-01-14T11:18:11.945Z,3
2017-01-14T11:19:11.903Z,3.06
2017-01-14T11:20:11.984Z,3.11
2017-01-14T11:21:11.438Z,3.08
2017-01-14T11:22:11.012Z,3.1
2017-01-14T11:23:11.743Z,3.05
2017-01-14T11:24:11.313Z,3.15
2017-01-14T11:25:11.665Z,3.13
2017-01-14T11:26:11.621Z,3
2017-01-14T11:27:11.576Z,3.06
2017-01-14T11:28:11.649Z,3.06
2017-01-14T11:29:10.728Z,2.87
2017-01-14T11:30:11.457Z,2.81
2017-01-14T11:31:11.427Z,2.85
2017-01-14T11:32:11.372Z,2.92
2017-01-14T11:33:11.334Z,2.82
2017-01-14T11:34:11.300Z,2.78
2017-01-14T11:35:11.263Z,2.84
2017-01-14T11:36:11.209Z,2.89
2017-01-14T11:37:11.228Z,2.82
2017-01-14T11:38:11.134Z,2.85
2017-01-14T11:39:10.728Z,2.85
2017-01-14T11:40:10.280Z,2.84
2017-01-14T11:41:11.009Z,2.9
2017-01-14T11:42:10.972Z,2.9
2017-01-14T11:43:10.538Z,3.06
2017-01-14T11:44:10.110Z,3
2017-01-14T11:45:10.841Z,3
2017-01-14T11:46:10.803Z,3.03
2017-01-14T11:47:10.764Z,3.13
2017-01-14T11:48:10.408Z,3.14
2017-01-14T11:49:10.294Z,3.21
2017-01-14T11:50:10.266Z,3.13
2017-01-14T11:51:10.595Z,3.17
2017-01-14T11:52:10.605Z,3.08
2017-01-14T11:53:10.134Z,3.11
2017-01-14T11:54:10.089Z,3.14
2017-01-14T11:55:10.052Z,3.11
2017-01-14T11:56:10.026Z,3.08
2017-01-14T11:57:09.968Z,3.03
2017-01-14T11:58:09.924Z,3.08
2017-01-14T11:59:10.265Z,3.15
2017-01-14T12:00:10.230Z,3.15
2017-01-14T12:01:10.193Z,3.2
2017-01-14T12:02:10.147Z,3.24
2017-01-14T12:03:09.727Z,3.36
2017-01-14T12:04:09.683Z,3.4
2017-01-14T12:05:10.025Z,3.6
2017-01-14T12:06:09.996Z,3.68
2017-01-14T12:07:09.946Z,3.86
2017-01-14T12:08:09.982Z,3.98
2017-01-14T12:09:09.859Z,4.04
2017-01-14T12:10:09.436Z,4.02
2017-01-14T12:11:09.399Z,4.12
2017-01-14T12:12:09.353Z,4.12
2017-01-14T12:13:09.320Z,4.09
2017-01-14T12:14:09.664Z,4.15
2017-01-14T12:15:09.623Z,4.08
2017-01-14T12:16:09.579Z,4.08
2017-01-14T12:17:09.153Z,4.02
2017-01-14T12:18:09.139Z,4.08
2017-01-14T12:19:09.071Z,4.05
2017-01-14T12:20:09.413Z,4.06
2017-01-14T12:21:09.376Z,4.02
2017-01-14T12:22:09.337Z,4.05
2017-01-14T12:23:08.910Z,4.02
2017-01-14T12:24:09.011Z,3.96
2017-01-14T12:25:09.217Z,3.98
2017-01-14T12:26:08.787Z,3.9
2017-01-14T12:27:08.361Z,3.8
2017-01-14T12:28:08.707Z,3.83
2017-01-14T12:29:09.052Z,3.78
2017-01-14T12:30:08.629Z,3.75
2017-01-14T12:31:09.056Z,3.79
2017-01-14T12:32:08.939Z,3.75
2017-01-14T12:33:08.552Z,3.73
2017-01-14T12:34:08.469Z,3.72
2017-01-14T12:35:08.427Z,3.79
2017-01-14T12:36:08.777Z,3.73
2017-01-14T12:37:08.736Z,3.79
2017-01-14T12:38:08.697Z,3.79
2017-01-14T12:39:08.646Z,3.86
2017-01-14T12:40:08.611Z,3.86
2017-01-14T12:41:08.184Z,3.75
2017-01-14T12:42:08.149Z,3.6
2017-01-14T12:43:08.496Z,3.7
2017-01-14T12:44:08.065Z,3.52
2017-01-14T12:45:07.640Z,3.55
2017-01-14T12:46:08.367Z,3.57
2017-01-14T12:47:08.329Z,3.58
2017-01-14T12:48:08.293Z,3.58
2017-01-14T12:49:08.250Z,3.57
2017-01-14T12:50:07.823Z,3.43
2017-01-14T12:51:08.172Z,3.45
2017-01-14T12:52:07.738Z,3.43
2017-01-14T12:53:08.117Z,3.47
2017-01-14T12:54:07.664Z,3.4
2017-01-14T12:55:07.624Z,3.26
2017-01-14T12:56:07.586Z,3.26
2017-01-14T12:57:07.923Z,3.24
2017-01-14T12:58:07.886Z,3.24
2017-01-14T12:59:07.843Z,3.26
2017-01-14T13:00:07.801Z,3.14
2017-01-14T13:01:07.378Z,3.13
2017-01-14T13:02:07.722Z,3.03
2017-01-14T13:03:07.689Z,3.06
2017-01-14T13:04:07.643Z,3.11
2017-01-14T13:05:07.599Z,3
2017-01-14T13:06:07.565Z,3.11
2017-01-14T13:07:07.131Z,3.06
2017-01-14T13:08:07.503Z,3.05
2017-01-14T13:09:07.442Z,3.02
2017-01-14T13:10:07.395Z,3.03
2017-01-14T13:11:07.353Z,3.13
2017-01-14T13:12:07.318Z,3.13
2017-01-14T13:13:06.505Z,3.13
2017-01-14T13:14:06.846Z,3.18
2017-01-14T13:15:07.184Z,3.18
2017-01-14T13:16:07.190Z,3.26